createdAt,value
2018-08-22T00:00:12.574Z,17.20
2018-08-22T00:02:42.110Z,17.20
2018-08-22T00:05:12.348Z,17.10
2018-08-22T00:07:42.053Z,17.00
2018-08-22T00:10:12.552Z,17.10
2018-08-22T00:12:42.538Z,17.00
2018-08-22T00:15:13.577Z,17.00
2018-08-22T00:17:44.080Z,16.90
2018-08-22T00:20:14.336Z,16.90
2018-08-22T00:22:44.338Z,16.80
2018-08-22T00:25:13.687Z,16.70
2018-08-22T00:27:42.746Z,16.70
2018-08-22T00:30:12.470Z,16.70
2018-08-22T00:32:41.794Z,16.70
2018-08-22T00:35:11.269Z,16.70
2018-08-22T00:37:42.209Z,16.60
2018-08-22T00:40:11.557Z,16.50
2018-08-22T00:42:41.571Z,16.60
2018-08-22T00:45:11.994Z,16.60
2018-08-22T00:47:42.276Z,16.60
2018-08-22T00:50:12.716Z,16.60
2018-08-22T00:52:42.698Z,16.60
2018-08-22T00:55:12.365Z,16.50
2018-08-22T00:57:41.634Z,16.30
2018-08-22T01:00:10.934Z,16.20
2018-08-22T01:02:41.473Z,16.20
2018-08-22T01:05:11.293Z,16.10
2018-08-22T01:07:40.324Z,16.10
2018-08-22T01:10:10.800Z,16.10
2018-08-22T01:12:40.134Z,16.10
2018-08-22T01:15:09.941Z,16.00
2018-08-22T01:17:39.537Z,16.00
2018-08-22T01:20:08.656Z,15.90
2018-08-22T01:22:37.393Z,15.90
2018-08-22T01:25:05.680Z,15.90
2018-08-22T01:27:33.998Z,15.90
2018-08-22T01:30:02.369Z,15.90
2018-08-22T01:32:31.607Z,15.90
2018-08-22T01:35:00.401Z,15.90
2018-08-22T01:37:28.694Z,15.90
2018-08-22T01:39:56.900Z,15.90
2018-08-22T01:42:25.109Z,15.90
2018-08-22T01:44:53.314Z,15.90
2018-08-22T01:47:21.514Z,15.80
2018-08-22T01:49:49.721Z,15.80
2018-08-22T01:52:17.994Z,15.70
2018-08-22T01:54:46.325Z,15.70
2018-08-22T01:57:14.889Z,15.60
2018-08-22T01:59:43.880Z,15.60
2018-08-22T02:02:12.669Z,15.70
2018-08-22T02:04:41.830Z,15.60
2018-08-22T02:07:11.047Z,15.60
2018-08-22T02:09:40.829Z,15.50
2018-08-22T02:12:10.094Z,15.40
2018-08-22T02:14:40.213Z,15.40
2018-08-22T02:17:08.873Z,15.40
2018-08-22T02:19:37.126Z,15.30
2018-08-22T02:22:05.342Z,15.30
2018-08-22T02:24:33.645Z,15.30
2018-08-22T02:27:02.134Z,15.30
2018-08-22T02:29:30.562Z,15.20
2018-08-22T02:31:59.027Z,15.30
2018-08-22T02:34:27.231Z,15.20
2018-08-22T02:36:55.444Z,15.20
2018-08-22T02:39:23.633Z,15.20
2018-08-22T02:41:51.842Z,15.10
2018-08-22T02:44:20.046Z,15.10
2018-08-22T02:46:48.446Z,15.00
2018-08-22T02:49:16.958Z,15.00
2018-08-22T02:51:45.422Z,14.90
2018-08-22T02:54:13.901Z,14.90
2018-08-22T02:56:42.871Z,15.00
2018-08-22T02:59:11.554Z,15.00
2018-08-22T03:01:40.472Z,15.00
2018-08-22T03:04:09.082Z,15.00
2018-08-22T03:06:37.734Z,14.90
2018-08-22T03:09:07.505Z,14.90
2018-08-22T03:11:35.842Z,14.90
2018-08-22T03:14:04.146Z,14.90
2018-08-22T03:16:32.657Z,14.80
2018-08-22T03:19:01.207Z,14.80
2018-08-22T03:21:29.528Z,14.80
2018-08-22T03:23:57.846Z,14.80
2018-08-22T03:26:26.247Z,14.80
2018-08-22T03:28:54.462Z,14.80
2018-08-22T03:31:22.681Z,14.70
2018-08-22T03:33:50.890Z,14.70
2018-08-22T03:36:19.105Z,14.60
2018-08-22T03:38:47.510Z,14.60
2018-08-22T03:41:15.970Z,14.60
2018-08-22T03:43:44.476Z,14.60
2018-08-22T03:46:13.631Z,14.60
2018-08-22T03:48:42.299Z,14.50
2018-08-22T03:51:11.061Z,14.50
2018-08-22T03:53:41.033Z,14.40
2018-08-22T03:56:09.690Z,14.40
2018-08-22T03:58:38.186Z,14.40
2018-08-22T04:01:06.477Z,14.40
2018-08-22T04:03:34.768Z,14.50
2018-08-22T04:06:02.986Z,14.40
2018-08-22T04:08:31.566Z,14.40
2018-08-22T04:11:00.050Z,14.40
2018-08-22T04:13:28.376Z,14.40
2018-08-22T04:15:56.633Z,14.30
2018-08-22T04:18:24.851Z,14.40
2018-08-22T04:20:53.041Z,14.40
2018-08-22T04:23:21.257Z,14.40
2018-08-22T04:25:49.474Z,14.40
2018-08-22T04:28:17.750Z,14.40
2018-08-22T04:30:46.048Z,14.40
2018-08-22T04:33:14.657Z,14.40
2018-08-22T04:35:43.470Z,14.50
2018-08-22T04:38:12.041Z,14.50
2018-08-22T04:40:40.569Z,14.60
2018-08-22T04:43:09.678Z,14.70
2018-08-22T04:45:38.073Z,14.70
2018-08-22T04:48:06.346Z,14.70
2018-08-22T04:50:34.485Z,14.70
2018-08-22T04:53:02.822Z,14.90
2018-08-22T04:55:31.229Z,15.00
2018-08-22T04:57:59.477Z,15.10
2018-08-22T05:00:27.780Z,15.20
2018-08-22T05:02:56.065Z,15.30
2018-08-22T05:05:24.273Z,15.40
2018-08-22T05:07:52.485Z,15.50
2018-08-22T05:10:20.722Z,15.60
2018-08-22T05:12:48.925Z,15.60
2018-08-22T05:15:17.158Z,15.70
2018-08-22T05:17:45.518Z,15.80
2018-08-22T05:20:13.826Z,15.80
2018-08-22T05:22:42.161Z,16.00
2018-08-22T05:25:10.882Z,16.10
2018-08-22T05:27:39.579Z,16.20
2018-08-22T05:30:08.262Z,16.40
2018-08-22T05:32:36.421Z,16.60
2018-08-22T05:35:04.930Z,16.80
2018-08-22T05:37:33.194Z,16.90
2018-08-22T05:40:01.720Z,17.10
2018-08-22T05:42:30.302Z,17.30
2018-08-22T05:44:58.818Z,17.50
2018-08-22T05:47:27.073Z,17.70
2018-08-22T05:49:55.334Z,17.80
2018-08-22T05:52:23.541Z,17.90
2018-08-22T05:54:51.751Z,18.10
2018-08-22T05:57:19.952Z,18.30
2018-08-22T05:59:48.163Z,18.60
2018-08-22T06:02:16.654Z,18.80
2018-08-22T06:04:44.958Z,19.30
2018-08-22T06:07:13.555Z,20.10
2018-08-22T06:09:42.025Z,21.20
2018-08-22T06:12:11.166Z,22.30
2018-08-22T06:14:40.067Z,23.20
2018-08-22T06:17:08.638Z,23.90
2018-08-22T06:19:36.946Z,24.60
2018-08-22T06:22:05.309Z,25.30
2018-08-22T06:24:33.651Z,25.70
2018-08-22T06:27:02.153Z,26.70
2018-08-22T06:29:30.397Z,27.10
2018-08-22T06:31:58.613Z,28.30
2018-08-22T06:34:27.262Z,28.50
2018-08-22T06:36:55.477Z,28.60
2018-08-22T06:39:23.701Z,29.00
2018-08-22T06:41:51.910Z,27.80
2018-08-22T06:44:20.648Z,28.30
2018-08-22T06:46:48.940Z,28.40
2018-08-22T06:49:17.261Z,29.30
2018-08-22T06:51:45.917Z,29.30
2018-08-22T06:54:14.354Z,29.80
2018-08-22T06:56:43.158Z,30.40
2018-08-22T06:59:12.407Z,30.50
2018-08-22T07:01:41.254Z,29.80
2018-08-22T07:04:10.399Z,28.90
2018-08-22T07:06:39.191Z,30.40
2018-08-22T07:09:11.164Z,31.90
2018-08-22T07:11:40.937Z,32.80
2018-08-22T07:14:10.078Z,33.00
2018-08-22T07:16:38.926Z,33.20
2018-08-22T07:19:07.737Z,31.50
2018-08-22T07:21:36.188Z,32.10
2018-08-22T07:24:04.465Z,32.40
2018-08-22T07:26:32.954Z,33.20
2018-08-22T07:29:01.162Z,33.30
2018-08-22T07:31:29.575Z,33.10
2018-08-22T07:33:57.937Z,33.40
2018-08-22T07:36:26.462Z,33.30
2018-08-22T07:38:54.725Z,34.80
2018-08-22T07:41:23.056Z,33.00
2018-08-22T07:43:51.313Z,32.20
2018-08-22T07:46:19.887Z,34.60
2018-08-22T07:48:48.251Z,34.70
2018-08-22T07:51:17.726Z,35.20
2018-08-22T07:53:46.342Z,34.80
2018-08-22T07:56:15.165Z,34.40
2018-08-22T07:58:43.627Z,34.50
2018-08-22T08:01:12.668Z,36.20
2018-08-22T08:03:41.265Z,36.10
2018-08-22T08:06:10.475Z,35.00
2018-08-22T08:08:39.178Z,34.80
2018-08-22T08:11:07.581Z,33.90
2018-08-22T08:13:35.891Z,33.90
2018-08-22T08:16:04.183Z,33.70
2018-08-22T08:18:32.711Z,34.30
2018-08-22T08:21:01.162Z,34.50
2018-08-22T08:23:29.666Z,34.50
2018-08-22T08:25:57.925Z,35.10
2018-08-22T08:28:26.126Z,37.60
2018-08-22T08:30:54.333Z,36.80
2018-08-22T08:33:22.541Z,35.80
2018-08-22T08:35:50.771Z,36.80
2018-08-22T08:38:18.979Z,38.30
2018-08-22T08:40:47.430Z,36.50
2018-08-22T08:43:15.921Z,36.40
2018-08-22T08:45:44.432Z,36.70
2018-08-22T08:48:13.807Z,38.00
2018-08-22T08:50:42.666Z,37.00
2018-08-22T08:53:11.582Z,34.50
2018-08-22T08:55:40.669Z,33.40
2018-08-22T08:58:09.393Z,34.80
2018-08-22T09:00:37.757Z,34.20
2018-08-22T09:03:06.094Z,35.20
2018-08-22T09:05:34.496Z,34.90
2018-08-22T09:08:03.069Z,35.50
2018-08-22T09:10:31.605Z,35.80
2018-08-22T09:15:34.502Z,36.00
2018-08-22T09:18:02.862Z,37.30
2018-08-22T09:20:32.463Z,37.30
2018-08-22T09:23:00.904Z,37.90
2018-08-22T09:25:29.222Z,37.70
2018-08-22T09:27:57.509Z,36.60
2018-08-22T09:30:25.713Z,37.10
2018-08-22T09:32:54.130Z,37.20
2018-08-22T09:35:22.380Z,37.40
2018-08-22T09:37:50.565Z,39.80
2018-08-22T09:40:18.820Z,38.60
2018-08-22T09:42:47.169Z,36.90
2018-08-22T09:45:15.653Z,37.00
2018-08-22T09:47:44.771Z,38.70
2018-08-22T09:50:13.626Z,38.60
2018-08-22T09:52:42.387Z,38.10
2018-08-22T09:55:11.090Z,40.20
2018-08-22T09:57:40.422Z,38.30
2018-08-22T10:00:14.863Z,37.30
2018-08-22T10:02:43.393Z,38.90
2018-08-22T10:05:12.326Z,37.60
2018-08-22T10:07:41.306Z,37.70
2018-08-22T10:10:11.870Z,35.00
2018-08-22T10:12:41.124Z,35.20
2018-08-22T10:15:09.855Z,35.10
2018-08-22T10:17:38.294Z,37.40
2018-08-22T10:20:11.255Z,37.10
2018-08-22T10:22:40.076Z,35.70
2018-08-22T10:25:09.456Z,34.10
2018-08-22T10:27:38.402Z,35.90
2018-08-22T10:30:07.125Z,37.50
2018-08-22T10:32:35.383Z,39.00
2018-08-22T10:35:03.743Z,39.90
2018-08-22T10:37:32.312Z,40.60
2018-08-22T10:40:00.937Z,42.00
2018-08-22T10:42:29.221Z,41.00
2018-08-22T10:44:57.595Z,41.10
2018-08-22T10:47:25.818Z,36.90
2018-08-22T10:49:54.057Z,37.40
2018-08-22T10:52:22.253Z,37.10
2018-08-22T10:54:50.502Z,36.20
2018-08-22T10:57:18.702Z,36.80
2018-08-22T10:59:47.166Z,35.50
2018-08-22T11:02:16.294Z,34.80
2018-08-22T11:04:44.970Z,36.60
2018-08-22T11:07:13.910Z,38.00
2018-08-22T11:09:43.194Z,38.50
2018-08-22T11:12:12.635Z,39.20
2018-08-22T11:14:41.933Z,39.20
2018-08-22T11:17:12.053Z,38.90
2018-08-22T11:19:41.224Z,38.30
2018-08-22T11:22:21.314Z,39.90
2018-08-22T11:25:01.113Z,42.30
2018-08-22T11:27:41.023Z,41.00
2018-08-22T11:30:20.863Z,39.10
2018-08-22T11:33:00.590Z,37.00
2018-08-22T11:35:27.844Z,36.90
2018-08-22T11:37:56.070Z,39.80
2018-08-22T11:40:24.282Z,41.30
2018-08-22T11:42:52.495Z,41.50
2018-08-22T11:45:20.706Z,39.40
2018-08-22T11:47:48.941Z,41.20
2018-08-22T11:50:17.533Z,43.00
2018-08-22T11:52:46.230Z,42.20
2018-08-22T11:55:14.948Z,41.90
2018-08-22T11:57:44.130Z,41.10
2018-08-22T12:00:13.411Z,40.70
2018-08-22T12:02:43.522Z,40.20
2018-08-22T12:05:13.089Z,40.40
2018-08-22T12:07:43.651Z,40.10
2018-08-22T12:10:14.330Z,40.40
2018-08-22T12:12:43.889Z,37.20
2018-08-22T12:15:13.533Z,38.30
2018-08-22T12:17:43.391Z,38.10
2018-08-22T12:20:12.821Z,34.90
2018-08-22T12:22:42.953Z,37.50
2018-08-22T12:25:14.310Z,40.30
2018-08-22T12:27:44.276Z,39.00
2018-08-22T12:30:13.714Z,39.30
2018-08-22T12:32:42.755Z,38.00
2018-08-22T12:35:12.666Z,38.10
2018-08-22T12:37:43.699Z,36.40
2018-08-22T12:40:13.473Z,38.00
2018-08-22T12:42:44.144Z,38.60
2018-08-22T12:45:13.449Z,40.10
2018-08-22T12:47:44.288Z,41.80
2018-08-22T12:50:13.969Z,43.50
2018-08-22T12:52:43.413Z,39.10
2018-08-22T12:55:13.919Z,38.80
2018-08-22T12:57:43.827Z,39.70
2018-08-22T13:00:13.378Z,40.60
2018-08-22T13:02:43.549Z,42.70
2018-08-22T13:05:14.072Z,41.70
2018-08-22T13:07:43.650Z,42.00
2018-08-22T13:10:14.110Z,42.20
2018-08-22T13:12:43.261Z,40.30
2018-08-22T13:15:13.574Z,40.90
2018-08-22T13:17:43.170Z,41.30
2018-08-22T13:20:13.011Z,40.80
2018-08-22T13:22:43.475Z,41.30
2018-08-22T13:25:13.317Z,41.20
2018-08-22T13:27:43.697Z,41.10
2018-08-22T13:30:13.577Z,42.90
2018-08-22T13:32:42.927Z,44.40
2018-08-22T13:35:12.297Z,43.80
2018-08-22T13:37:42.934Z,42.20
2018-08-22T13:40:13.192Z,43.40
2018-08-22T13:42:43.580Z,41.40
2018-08-22T13:45:14.251Z,40.30
2018-08-22T13:47:43.961Z,40.10
2018-08-22T13:50:14.282Z,40.90
2018-08-22T13:52:44.415Z,42.90
2018-08-22T13:55:15.422Z,43.80
2018-08-22T13:57:44.322Z,44.40
2018-08-22T14:00:13.246Z,45.90
2018-08-22T14:02:43.025Z,44.40
2018-08-22T14:05:14.604Z,43.80
2018-08-22T14:07:45.106Z,40.50
2018-08-22T14:10:15.650Z,40.70
2018-08-22T14:12:45.656Z,38.90
2018-08-22T14:15:15.356Z,38.80
2018-08-22T14:17:44.834Z,40.10
2018-08-22T14:20:15.046Z,39.30
2018-08-22T14:22:44.211Z,39.40
2018-08-22T14:25:14.041Z,40.60
2018-08-22T14:27:44.710Z,41.30
2018-08-22T14:30:15.009Z,40.90
2018-08-22T14:32:44.170Z,40.20
2018-08-22T14:35:14.259Z,40.80
2018-08-22T14:37:44.736Z,39.90
2018-08-22T14:40:14.579Z,40.70
2018-08-22T14:42:44.533Z,40.10
2018-08-22T14:45:14.587Z,39.90
2018-08-22T14:47:44.446Z,39.60
2018-08-22T14:50:14.178Z,38.30
2018-08-22T14:52:44.778Z,38.10
2018-08-22T14:55:15.404Z,37.60
2018-08-22T14:57:44.863Z,36.40
2018-08-22T15:00:15.261Z,36.30
2018-08-22T15:02:45.767Z,35.80
2018-08-22T15:05:15.241Z,35.00
2018-08-22T15:07:45.007Z,34.80
2018-08-22T15:10:17.162Z,34.30
2018-08-22T15:12:46.510Z,34.30
2018-08-22T15:15:15.564Z,33.90
2018-08-22T15:17:46.876Z,33.80
2018-08-22T15:20:16.325Z,33.60
2018-08-22T15:22:45.482Z,33.50
2018-08-22T15:25:16.117Z,33.50
2018-08-22T15:27:45.970Z,33.50
2018-08-22T15:30:16.347Z,33.30
2018-08-22T15:32:45.478Z,33.30
2018-08-22T15:35:15.088Z,33.40
2018-08-22T15:37:44.206Z,33.50
2018-08-22T15:40:13.666Z,33.40
2018-08-22T15:42:44.781Z,33.50
2018-08-22T15:45:14.579Z,33.20
2018-08-22T15:47:43.991Z,33.30
2018-08-22T15:50:13.634Z,33.00
2018-08-22T15:52:43.827Z,32.80
2018-08-22T15:55:16.182Z,32.40
2018-08-22T15:57:57.170Z,32.40
2018-08-22T16:00:39.430Z,32.60
2018-08-22T16:03:09.205Z,32.70
2018-08-22T16:05:39.023Z,32.80
2018-08-22T16:08:08.254Z,32.70
2018-08-22T16:10:36.657Z,32.60
2018-08-22T16:13:05.129Z,32.30
2018-08-22T16:15:34.949Z,32.20
2018-08-22T16:18:06.637Z,32.10
2018-08-22T16:20:41.670Z,32.10
2018-08-22T16:23:13.325Z,32.00
2018-08-22T16:25:45.608Z,31.70
2018-08-22T16:28:15.337Z,31.70
2018-08-22T16:30:56.692Z,31.60
2018-08-22T16:33:14.808Z,31.50
2018-08-22T16:35:44.463Z,31.50
2018-08-22T16:38:14.661Z,31.40
2018-08-22T16:40:51.240Z,31.30
2018-08-22T16:43:36.936Z,31.20
2018-08-22T16:46:06.769Z,30.80
2018-08-22T16:48:35.182Z,30.40
2018-08-22T16:51:03.698Z,30.30
2018-08-22T16:53:32.680Z,30.30
2018-08-22T16:56:01.251Z,30.30
2018-08-22T16:58:29.511Z,30.10
2018-08-22T17:00:57.778Z,30.20
2018-08-22T17:03:26.118Z,30.30
2018-08-22T17:06:00.214Z,30.40
2018-08-22T17:08:28.875Z,30.30
2018-08-22T17:11:01.413Z,30.20
2018-08-22T17:13:51.753Z,29.80
2018-08-22T17:16:20.557Z,29.70
2018-08-22T17:18:49.149Z,29.60
2018-08-22T17:21:18.110Z,29.50
2018-08-22T17:23:47.754Z,29.40
2018-08-22T17:26:18.016Z,29.20
2018-08-22T17:28:51.797Z,29.00
2018-08-22T17:31:20.870Z,28.90
2018-08-22T17:33:53.889Z,28.70
2018-08-22T17:36:22.229Z,28.60
2018-08-22T17:38:52.078Z,28.40
2018-08-22T17:41:21.804Z,28.30
2018-08-22T17:43:59.647Z,28.20
2018-08-22T17:46:29.653Z,28.00
2018-08-22T17:48:58.085Z,27.80
2018-08-22T17:51:26.477Z,27.80
2018-08-22T17:53:58.417Z,27.70
2018-08-22T17:56:27.396Z,27.70
2018-08-22T17:58:56.626Z,27.60
2018-08-22T18:01:25.802Z,27.40
2018-08-22T18:03:56.497Z,27.10
2018-08-22T18:06:25.123Z,26.90
2018-08-22T18:08:53.253Z,26.60
2018-08-22T18:11:21.551Z,26.40
2018-08-22T18:13:49.785Z,26.30
2018-08-22T18:16:18.397Z,26.20
2018-08-22T18:18:48.962Z,26.20
2018-08-22T18:21:17.746Z,26.10
2018-08-22T18:24:01.868Z,26.00
2018-08-22T18:26:30.794Z,25.90
2018-08-22T18:28:59.082Z,25.70
2018-08-22T18:31:27.304Z,25.40
2018-08-22T18:34:00.174Z,25.10
2018-08-22T18:36:29.684Z,24.80
2018-08-22T18:39:08.170Z,24.50
2018-08-22T18:41:37.001Z,24.30
2018-08-22T18:44:05.853Z,24.20
2018-08-22T18:46:34.974Z,24.20
2018-08-22T18:49:04.580Z,24.10
2018-08-22T18:51:33.657Z,23.90
2018-08-22T18:54:02.656Z,23.90
2018-08-22T18:56:31.188Z,24.00
2018-08-22T18:59:11.068Z,24.30
2018-08-22T19:01:43.034Z,24.30
2018-08-22T19:04:14.680Z,24.10
2018-08-22T19:06:43.333Z,23.90
2018-08-22T19:09:12.792Z,24.10
2018-08-22T19:11:42.270Z,24.00
2018-08-22T19:14:11.418Z,23.90
2018-08-22T19:16:40.027Z,23.80
2018-08-22T19:19:09.510Z,23.70
2018-08-22T19:21:38.113Z,23.50
2018-08-22T19:24:09.987Z,23.40
2018-08-22T19:26:38.886Z,23.30
2018-08-22T19:29:07.231Z,23.20
2018-08-22T19:31:36.843Z,23.20
2018-08-22T19:34:05.129Z,23.10
2018-08-22T19:36:33.499Z,23.10
2018-08-22T19:39:01.866Z,23.00
2018-08-22T19:41:32.009Z,22.90
2018-08-22T19:44:01.278Z,22.90
2018-08-22T19:46:41.442Z,22.70
2018-08-22T19:49:10.936Z,22.50
2018-08-22T19:51:40.194Z,22.20
2018-08-22T19:54:08.987Z,22.20
2018-08-22T19:56:37.536Z,22.00
2018-08-22T19:59:06.102Z,21.90
2018-08-22T20:01:36.055Z,21.80
2018-08-22T20:04:04.923Z,21.70
2018-08-22T20:06:33.964Z,21.70
2018-08-22T20:09:02.755Z,21.60
2018-08-22T20:11:32.910Z,21.60
2018-08-22T20:14:04.104Z,21.50
2018-08-22T20:16:33.626Z,21.30
2018-08-22T20:19:03.523Z,21.30
2018-08-22T20:21:40.522Z,21.20
2018-08-22T20:24:12.922Z,21.00
2018-08-22T20:26:50.751Z,21.00
2018-08-22T20:29:19.025Z,20.90
2018-08-22T20:31:48.123Z,20.90
2018-08-22T20:34:17.481Z,20.80
2018-08-22T20:36:47.738Z,20.80
2018-08-22T20:39:16.711Z,20.80
2018-08-22T20:41:46.026Z,20.70
2018-08-22T20:44:21.132Z,20.70
2018-08-22T20:46:49.697Z,20.60
2018-08-22T20:49:19.660Z,20.50
2018-08-22T20:51:48.546Z,20.50
2018-08-22T20:54:20.568Z,20.40
2018-08-22T20:56:54.529Z,20.30
2018-08-22T20:59:23.797Z,20.20
2018-08-22T21:01:58.225Z,20.20
2018-08-22T21:04:26.409Z,20.10
2018-08-22T21:06:54.797Z,20.10
2018-08-22T21:09:23.007Z,20.00
2018-08-22T21:11:52.229Z,20.00
2018-08-22T21:14:20.446Z,20.00
2018-08-22T21:16:49.234Z,19.90
2018-08-22T21:19:19.163Z,19.80
2018-08-22T21:21:47.670Z,19.70
2018-08-22T21:24:16.603Z,19.70
2018-08-22T21:26:46.291Z,19.60
2018-08-22T21:29:15.543Z,19.60
2018-08-22T21:31:45.214Z,19.60
2018-08-22T21:34:19.617Z,19.50
2018-08-22T21:36:48.131Z,19.40
2018-08-22T21:39:22.074Z,19.40
2018-08-22T21:42:02.099Z,19.40
2018-08-22T21:44:30.389Z,19.60
2018-08-22T21:47:04.414Z,19.70
2018-08-22T21:49:39.150Z,19.70
2018-08-22T21:52:08.589Z,19.80
2018-08-22T21:54:37.619Z,19.70
2018-08-22T21:57:06.056Z,19.70
2018-08-22T21:59:34.304Z,19.70
2018-08-22T22:02:07.089Z,19.60
2018-08-22T22:04:36.535Z,19.40
2018-08-22T22:07:44.957Z,19.10
2018-08-22T22:10:22.997Z,19.00
2018-08-22T22:12:52.195Z,19.10
2018-08-22T22:15:29.360Z,19.00
2018-08-22T22:17:57.803Z,19.00
2018-08-22T22:20:26.655Z,19.00
2018-08-22T22:22:55.391Z,19.00
2018-08-22T22:25:24.148Z,19.00
2018-08-22T22:27:52.420Z,19.00
2018-08-22T22:30:22.789Z,19.00
2018-08-22T22:32:51.770Z,19.00
2018-08-22T22:35:25.501Z,19.00
2018-08-22T22:37:59.244Z,19.00
2018-08-22T22:40:29.878Z,19.20
2018-08-22T22:42:58.145Z,19.20
2018-08-22T22:45:26.437Z,19.30
2018-08-22T22:47:54.823Z,19.20
2018-08-22T22:50:23.851Z,19.00
2018-08-22T22:52:52.279Z,18.80
2018-08-22T22:55:20.614Z,18.60
2018-08-22T22:57:49.585Z,18.50
2018-08-22T23:00:18.869Z,18.40
2018-08-22T23:02:52.691Z,18.30
2018-08-22T23:05:20.974Z,18.30
2018-08-22T23:07:49.996Z,18.30
2018-08-22T23:10:19.854Z,18.20
2018-08-22T23:12:49.462Z,18.30
2018-08-22T23:15:21.219Z,18.30
2018-08-22T23:17:52.463Z,18.40
2018-08-22T23:20:43.598Z,18.40
2018-08-22T23:23:25.725Z,18.40
2018-08-22T23:25:54.830Z,18.40
2018-08-22T23:28:23.787Z,18.40
2018-08-22T23:30:53.022Z,18.30
2018-08-22T23:33:21.238Z,18.20
2018-08-22T23:35:49.554Z,18.10
2018-08-22T23:38:26.613Z,18.10
2018-08-22T23:40:54.910Z,18.00
2018-08-22T23:43:23.122Z,17.90
2018-08-22T23:45:56.003Z,17.80
2018-08-22T23:48:29.838Z,17.70
2018-08-22T23:51:01.013Z,17.70
2018-08-22T23:53:39.238Z,17.60
2018-08-22T23:56:23.622Z,17.50
2018-08-22T23:58:52.321Z,17.40
